createdAt,value
2018-11-12T00:01:01.159Z,19.30
2018-11-12T00:03:27.388Z,19.30
2018-11-12T00:05:53.607Z,19.30
2018-11-12T00:08:19.844Z,19.30
2018-11-12T00:10:46.068Z,19.30
2018-11-12T00:13:12.292Z,19.30
2018-11-12T00:15:38.519Z,19.30
2018-11-12T00:18:04.746Z,19.20
2018-11-12T00:20:30.975Z,19.20
2018-11-12T00:22:57.200Z,19.20
2018-11-12T00:25:23.427Z,19.20
2018-11-12T00:27:49.658Z,19.20
2018-11-12T00:30:15.882Z,19.20
2018-11-12T00:32:43.021Z,19.20
2018-11-12T00:35:09.563Z,19.20
2018-11-12T00:37:35.712Z,19.20
2018-11-12T00:40:02.018Z,19.20
2018-11-12T00:42:28.256Z,19.20
2018-11-12T00:44:54.468Z,19.20
2018-11-12T00:47:20.703Z,19.20
2018-11-12T00:49:46.930Z,19.20
2018-11-12T00:52:13.157Z,19.20
2018-11-12T00:54:39.385Z,19.20
2018-11-12T00:57:05.599Z,19.20
2018-11-12T00:59:31.834Z,19.20
2018-11-12T01:01:58.072Z,19.20
2018-11-12T01:04:24.222Z,19.20
2018-11-12T01:06:50.371Z,19.20
2018-11-12T01:09:16.748Z,19.20
2018-11-12T01:11:42.978Z,19.20
2018-11-12T01:14:09.127Z,19.10
2018-11-12T01:16:35.282Z,19.10
2018-11-12T01:19:01.648Z,19.10
2018-11-12T01:21:27.868Z,19.10
2018-11-12T01:23:54.101Z,19.10
2018-11-12T01:26:20.275Z,19.10
2018-11-12T01:28:46.563Z,19.10
2018-11-12T01:31:12.791Z,19.10
2018-11-12T01:33:38.999Z,19.10
2018-11-12T01:36:05.654Z,19.10
2018-11-12T01:38:31.873Z,19.10
2018-11-12T01:40:58.106Z,19.10
2018-11-12T01:43:24.335Z,19.10
2018-11-12T01:45:50.504Z,19.10
2018-11-12T01:48:16.790Z,19.10
2018-11-12T01:50:43.003Z,19.10
2018-11-12T01:53:09.236Z,19.10
2018-11-12T01:55:35.403Z,19.10
2018-11-12T01:58:01.559Z,19.10
2018-11-12T02:00:27.921Z,19.10
2018-11-12T02:02:54.157Z,19.00
2018-11-12T02:05:20.370Z,19.10
2018-11-12T02:07:46.614Z,19.10
2018-11-12T02:10:12.821Z,19.00
2018-11-12T02:12:39.047Z,19.00
2018-11-12T02:15:05.287Z,19.00
2018-11-12T02:17:31.511Z,19.00
2018-11-12T02:19:57.738Z,19.00
2018-11-12T02:22:23.957Z,19.00
2018-11-12T02:24:51.065Z,19.00
2018-11-12T02:27:17.243Z,19.00
2018-11-12T02:29:43.466Z,19.00
2018-11-12T02:32:09.684Z,19.00
2018-11-12T02:34:35.918Z,19.00
2018-11-12T02:37:02.150Z,19.00
2018-11-12T02:39:28.362Z,19.00
2018-11-12T02:41:54.512Z,19.00
2018-11-12T02:44:20.664Z,19.00
2018-11-12T02:46:47.063Z,19.00
2018-11-12T02:49:13.280Z,18.90
2018-11-12T02:51:39.507Z,19.00
2018-11-12T02:54:05.732Z,19.00
2018-11-12T02:56:31.969Z,19.00
2018-11-12T02:58:58.187Z,18.90
2018-11-12T03:01:24.416Z,18.90
2018-11-12T03:03:50.643Z,18.90
2018-11-12T03:06:16.801Z,18.90
2018-11-12T03:08:43.091Z,18.90
2018-11-12T03:11:09.327Z,18.90
2018-11-12T03:13:35.550Z,18.90
2018-11-12T03:16:01.800Z,18.90
2018-11-12T03:18:28.403Z,18.90
2018-11-12T03:20:54.643Z,18.90
2018-11-12T03:23:20.870Z,18.90
2018-11-12T03:25:47.922Z,18.90
2018-11-12T03:28:14.137Z,18.90
2018-11-12T03:30:40.366Z,18.90
2018-11-12T03:33:06.615Z,18.90
2018-11-12T03:35:32.822Z,18.90
2018-11-12T03:37:59.055Z,18.90
2018-11-12T03:40:25.277Z,18.90
2018-11-12T03:42:51.512Z,18.90
2018-11-12T03:45:18.953Z,18.90
2018-11-12T03:47:45.186Z,18.90
2018-11-12T03:50:11.413Z,18.90
2018-11-12T03:52:37.642Z,18.80
2018-11-12T03:55:03.871Z,18.90
2018-11-12T03:57:30.081Z,18.80
2018-11-12T03:59:56.337Z,18.90
2018-11-12T04:02:22.965Z,18.80
2018-11-12T04:04:49.171Z,18.80
2018-11-12T04:07:15.411Z,18.80
2018-11-12T04:09:41.633Z,18.80
2018-11-12T04:12:08.315Z,18.90
2018-11-12T04:14:34.523Z,18.80
2018-11-12T04:17:00.726Z,18.80
2018-11-12T04:19:27.964Z,18.80
2018-11-12T04:21:55.215Z,18.80
2018-11-12T04:24:21.457Z,18.80
2018-11-12T04:26:47.605Z,18.80
2018-11-12T04:29:13.906Z,18.80
2018-11-12T04:31:40.127Z,18.80
2018-11-12T04:34:06.354Z,18.80
2018-11-12T04:36:32.494Z,18.80
2018-11-12T04:38:58.815Z,18.80
2018-11-12T04:41:25.042Z,18.80
2018-11-12T04:43:51.267Z,18.80
2018-11-12T04:46:17.422Z,18.80
2018-11-12T04:48:43.719Z,18.80
2018-11-12T04:51:09.930Z,18.80
2018-11-12T04:53:36.085Z,18.80
2018-11-12T04:56:02.813Z,18.80
2018-11-12T04:58:29.042Z,18.80
2018-11-12T05:00:55.264Z,18.80
2018-11-12T05:03:21.499Z,18.80
2018-11-12T05:05:47.712Z,18.80
2018-11-12T05:08:13.942Z,18.80
2018-11-12T05:10:40.083Z,18.80
2018-11-12T05:13:06.396Z,18.80
2018-11-12T05:15:32.568Z,18.80
2018-11-12T05:17:58.853Z,18.80
2018-11-12T05:20:25.085Z,18.80
2018-11-12T05:22:51.228Z,18.80
2018-11-12T05:25:17.536Z,18.80
2018-11-12T05:27:43.756Z,18.80
2018-11-12T05:30:09.986Z,18.80
2018-11-12T05:32:36.203Z,18.80
2018-11-12T05:35:02.427Z,18.80
2018-11-12T05:37:28.619Z,18.80
2018-11-12T05:39:55.304Z,18.80
2018-11-12T05:42:21.533Z,18.80
2018-11-12T05:44:47.806Z,18.80
2018-11-12T05:47:14.391Z,18.80
2018-11-12T05:49:40.614Z,18.70
2018-11-12T05:52:06.845Z,18.70
2018-11-12T05:54:32.999Z,18.70
2018-11-12T05:56:59.303Z,18.80
2018-11-12T05:59:25.531Z,18.80
2018-11-12T06:01:51.755Z,18.70
2018-11-12T06:04:17.989Z,18.70
2018-11-12T06:06:44.136Z,18.80
2018-11-12T06:09:10.430Z,18.80
2018-11-12T06:11:36.661Z,18.80
2018-11-12T06:14:02.823Z,18.80
2018-11-12T06:16:28.972Z,18.80
2018-11-12T06:18:55.347Z,18.70
2018-11-12T06:21:21.568Z,18.70
2018-11-12T06:23:47.796Z,18.70
2018-11-12T06:26:14.028Z,18.70
2018-11-12T06:28:40.166Z,18.70
2018-11-12T06:31:06.489Z,18.70
2018-11-12T06:33:33.139Z,18.70
2018-11-12T06:35:59.330Z,18.70
2018-11-12T06:38:25.568Z,18.70
2018-11-12T06:40:51.795Z,18.70
2018-11-12T06:43:18.116Z,18.70
2018-11-12T06:45:45.476Z,18.70
2018-11-12T06:48:11.712Z,18.70
2018-11-12T06:50:37.856Z,18.70
2018-11-12T06:53:04.257Z,18.70
2018-11-12T06:55:30.794Z,18.70
2018-11-12T06:57:57.020Z,18.70
2018-11-12T07:00:23.247Z,18.70
2018-11-12T07:02:49.478Z,18.70
2018-11-12T07:05:15.628Z,18.70
2018-11-12T07:07:41.779Z,18.70
2018-11-12T07:10:08.152Z,18.70
2018-11-12T07:12:34.383Z,18.70
2018-11-12T07:15:00.617Z,18.70
2018-11-12T07:17:26.840Z,18.70
2018-11-12T07:19:53.059Z,18.70
2018-11-12T07:22:19.307Z,18.70
2018-11-12T07:24:45.521Z,18.70
2018-11-12T07:27:11.744Z,18.70
2018-11-12T07:29:37.969Z,18.70
2018-11-12T07:32:04.196Z,18.70
2018-11-12T07:34:30.423Z,18.70
2018-11-12T07:36:56.572Z,18.70
2018-11-12T07:39:22.882Z,18.70
2018-11-12T07:41:49.111Z,18.70
2018-11-12T07:44:15.259Z,18.70
2018-11-12T07:46:41.553Z,18.70
2018-11-12T07:49:07.716Z,18.70
2018-11-12T07:51:34.007Z,18.70
2018-11-12T07:54:00.236Z,18.70
2018-11-12T07:56:26.499Z,18.70
2018-11-12T07:58:53.921Z,18.70
2018-11-12T08:01:20.145Z,18.70
2018-11-12T08:03:46.426Z,18.70
2018-11-12T08:06:12.999Z,18.70
2018-11-12T08:08:39.246Z,18.70
2018-11-12T08:11:05.463Z,18.70
2018-11-12T08:13:31.687Z,18.70
2018-11-12T08:15:57.843Z,18.70
2018-11-12T08:18:24.147Z,18.70
2018-11-12T08:20:50.380Z,18.70
2018-11-12T08:23:16.595Z,18.70
2018-11-12T08:25:43.648Z,18.60
2018-11-12T08:28:09.873Z,18.70
2018-11-12T08:30:36.094Z,18.70
2018-11-12T08:33:02.440Z,18.70
2018-11-12T08:35:29.771Z,18.70
2018-11-12T08:37:55.910Z,18.70
2018-11-12T08:40:22.255Z,18.70
2018-11-12T08:42:48.866Z,18.70
2018-11-12T08:45:15.087Z,18.60
2018-11-12T08:47:41.319Z,18.60
2018-11-12T08:50:07.665Z,18.60
2018-11-12T08:52:35.000Z,18.60
2018-11-12T08:55:01.277Z,18.60
2018-11-12T08:57:27.862Z,18.70
2018-11-12T08:59:54.090Z,18.70
2018-11-12T09:02:20.312Z,18.60
2018-11-12T09:04:46.548Z,18.60
2018-11-12T09:07:12.940Z,18.60
2018-11-12T09:09:40.226Z,18.70
2018-11-12T09:12:06.445Z,18.70
2018-11-12T09:14:32.675Z,18.60
2018-11-12T09:16:58.904Z,18.70
2018-11-12T09:19:25.132Z,18.70
2018-11-12T09:21:51.359Z,18.70
2018-11-12T09:24:17.677Z,18.70
2018-11-12T09:26:44.019Z,18.70
2018-11-12T09:29:10.247Z,18.70
2018-11-12T09:31:36.677Z,18.70
2018-11-12T09:34:07.818Z,18.60
2018-11-12T09:36:34.072Z,18.60
2018-11-12T09:39:01.553Z,18.60
2018-11-12T09:41:28.158Z,18.60
2018-11-12T09:43:54.772Z,18.60
2018-11-12T09:46:20.999Z,18.60
2018-11-12T09:48:47.280Z,18.60
2018-11-12T09:51:13.864Z,18.60
2018-11-12T09:53:40.111Z,18.60
2018-11-12T09:56:06.568Z,18.60
2018-11-12T09:58:32.947Z,18.60
2018-11-12T10:00:59.525Z,18.60
2018-11-12T10:03:27.759Z,18.50
2018-11-12T10:05:55.116Z,18.50
2018-11-12T10:08:22.334Z,18.50
2018-11-12T10:10:49.668Z,18.60
2018-11-12T10:13:16.091Z,18.60
2018-11-12T10:15:43.520Z,18.60
2018-11-12T10:18:09.206Z,18.60
2018-11-12T10:20:34.729Z,18.50
2018-11-12T10:23:00.876Z,18.50
2018-11-12T10:25:27.185Z,18.40
2018-11-12T10:27:53.402Z,18.50
2018-11-12T10:30:19.632Z,18.50
2018-11-12T10:32:45.862Z,18.50
2018-11-12T10:35:12.098Z,18.50
2018-11-12T10:37:38.320Z,18.40
2018-11-12T10:40:04.553Z,18.30
2018-11-12T10:42:30.774Z,18.40
2018-11-12T10:44:56.995Z,18.30
2018-11-12T10:47:23.636Z,18.40
2018-11-12T10:49:49.865Z,18.50
2018-11-12T10:52:16.074Z,18.40
2018-11-12T10:54:42.428Z,18.40
2018-11-12T10:57:09.443Z,18.40
2018-11-12T10:59:35.827Z,18.40
2018-11-12T11:02:02.230Z,18.40
2018-11-12T11:04:28.452Z,18.50
2018-11-12T11:06:54.680Z,18.60
2018-11-12T11:09:20.827Z,18.60
2018-11-12T11:11:47.118Z,18.60
2018-11-12T11:14:13.364Z,18.50
2018-11-12T11:16:39.580Z,18.50
2018-11-12T11:19:05.818Z,18.60
2018-11-12T11:21:31.965Z,18.60
2018-11-12T11:23:58.268Z,18.60
2018-11-12T11:26:24.506Z,18.60
2018-11-12T11:28:50.721Z,18.60
2018-11-12T11:31:19.812Z,18.50
2018-11-12T11:33:46.041Z,18.50
2018-11-12T11:36:12.270Z,18.60
2018-11-12T11:38:38.443Z,18.60
2018-11-12T11:41:04.585Z,18.60
2018-11-12T11:43:30.952Z,18.60
2018-11-12T11:45:57.173Z,18.60
2018-11-12T11:48:23.328Z,18.50
2018-11-12T11:50:49.628Z,18.60
2018-11-12T11:53:15.854Z,18.50
2018-11-12T11:55:42.002Z,18.50
2018-11-12T11:58:08.294Z,18.50
2018-11-12T12:00:34.539Z,18.60
2018-11-12T12:03:00.789Z,18.60
2018-11-12T12:05:28.211Z,18.60
2018-11-12T12:07:54.454Z,18.60
2018-11-12T12:10:20.676Z,18.60
2018-11-12T12:12:46.896Z,18.60
2018-11-12T12:15:13.115Z,18.70
2018-11-12T12:17:39.416Z,18.60
2018-11-12T12:20:06.812Z,18.60
2018-11-12T12:22:32.969Z,18.60
2018-11-12T12:24:59.347Z,18.60
2018-11-12T12:27:25.907Z,18.60
2018-11-12T12:29:52.138Z,18.60
2018-11-12T12:32:18.434Z,18.60
2018-11-12T12:34:44.648Z,18.60
2018-11-12T12:37:11.240Z,18.60
2018-11-12T12:39:37.451Z,18.60
2018-11-12T12:42:03.669Z,18.60
2018-11-12T12:44:29.909Z,18.60
2018-11-12T12:46:57.155Z,18.60
2018-11-12T12:49:23.589Z,18.60
2018-11-12T12:51:50.220Z,18.60
2018-11-12T12:54:16.440Z,18.60
2018-11-12T12:56:42.672Z,18.70
2018-11-12T12:59:08.918Z,18.60
2018-11-12T13:01:35.142Z,18.60
2018-11-12T13:04:01.772Z,18.60
2018-11-12T13:06:27.977Z,18.60
2018-11-12T13:08:54.631Z,18.60
2018-11-12T13:11:20.860Z,18.60
2018-11-12T13:13:47.109Z,18.60
2018-11-12T13:16:13.717Z,18.60
2018-11-12T13:18:39.945Z,18.60
2018-11-12T13:21:06.183Z,18.60
2018-11-12T13:23:33.176Z,18.60
2018-11-12T13:25:59.451Z,18.60
2018-11-12T13:28:25.670Z,18.60
2018-11-12T13:30:51.840Z,18.60
2018-11-12T13:33:18.123Z,18.60
2018-11-12T13:35:44.278Z,18.60
2018-11-12T13:38:10.580Z,18.60
2018-11-12T13:40:36.736Z,18.60
2018-11-12T13:43:03.032Z,18.60
2018-11-12T13:45:29.257Z,18.60
2018-11-12T13:47:55.490Z,18.60
2018-11-12T13:50:21.711Z,18.60
2018-11-12T13:52:47.863Z,18.60
2018-11-12T13:55:14.188Z,18.60
2018-11-12T13:57:40.407Z,18.60
2018-11-12T14:00:06.620Z,18.60
2018-11-12T14:02:32.850Z,18.60
2018-11-12T14:04:59.075Z,18.60
2018-11-12T14:07:25.312Z,18.60
2018-11-12T14:09:51.531Z,18.60
2018-11-12T14:12:17.746Z,18.60
2018-11-12T14:14:43.980Z,18.60
2018-11-12T14:17:10.211Z,18.60
2018-11-12T14:19:36.432Z,18.60
2018-11-12T14:22:02.665Z,18.60
2018-11-12T14:24:28.885Z,18.60
2018-11-12T14:26:55.112Z,18.60
2018-11-12T14:29:21.337Z,18.60
2018-11-12T14:31:47.567Z,18.60
2018-11-12T14:34:13.793Z,18.60
2018-11-12T14:36:40.020Z,18.60
2018-11-12T14:39:06.244Z,18.60
2018-11-12T14:41:32.463Z,18.60
2018-11-12T14:43:58.700Z,18.60
2018-11-12T14:46:24.929Z,18.60
2018-11-12T14:48:51.083Z,18.60
2018-11-12T14:51:17.482Z,18.60
2018-11-12T14:53:44.873Z,18.60
2018-11-12T14:56:12.323Z,18.60
2018-11-12T14:58:38.523Z,18.60
2018-11-12T15:01:04.742Z,18.60
2018-11-12T15:03:30.922Z,18.60
2018-11-12T15:05:57.289Z,18.60
2018-11-12T15:08:23.834Z,18.60
2018-11-12T15:10:50.060Z,18.60
2018-11-12T15:13:16.291Z,18.60
2018-11-12T15:15:42.520Z,18.60
2018-11-12T15:18:08.698Z,18.50
2018-11-12T15:20:34.843Z,18.60
2018-11-12T15:23:01.200Z,18.60
2018-11-12T15:25:27.415Z,18.50
2018-11-12T15:27:53.643Z,18.60
2018-11-12T15:30:19.875Z,18.50
2018-11-12T15:32:46.107Z,18.60
2018-11-12T15:35:12.329Z,18.60
2018-11-12T15:37:38.591Z,18.50
2018-11-12T15:40:06.012Z,18.50
2018-11-12T15:42:32.241Z,18.50
2018-11-12T15:44:58.874Z,18.60
2018-11-12T15:47:25.103Z,18.50
2018-11-12T15:49:51.318Z,18.50
2018-11-12T15:52:17.479Z,18.50
2018-11-12T15:54:43.783Z,18.50
2018-11-12T15:57:10.106Z,18.50
2018-11-12T15:59:36.355Z,18.50
2018-11-12T16:02:02.877Z,18.50
2018-11-12T16:04:29.096Z,18.60
2018-11-12T16:06:55.335Z,18.50
2018-11-12T16:09:21.548Z,18.50
2018-11-12T16:11:47.801Z,18.50
2018-11-12T16:14:14.882Z,18.50
2018-11-12T16:16:41.044Z,18.50
2018-11-12T16:19:07.296Z,18.50
2018-11-12T16:21:33.710Z,18.50
2018-11-12T16:24:00.148Z,18.50
2018-11-12T16:26:26.321Z,18.50
2018-11-12T16:28:52.808Z,18.50
2018-11-12T16:31:19.233Z,18.50
2018-11-12T16:33:45.383Z,18.50
2018-11-12T16:36:11.698Z,18.50
2018-11-12T16:38:37.839Z,18.50
2018-11-12T16:41:04.136Z,18.50
2018-11-12T16:43:30.363Z,18.50
2018-11-12T16:45:57.846Z,18.50
2018-11-12T16:48:24.256Z,18.50
2018-11-12T16:50:50.693Z,18.50
2018-11-12T16:53:16.835Z,18.50
2018-11-12T16:55:43.139Z,18.50
2018-11-12T16:58:09.363Z,18.50
2018-11-12T17:00:35.597Z,18.50
2018-11-12T17:03:01.807Z,18.50
2018-11-12T17:05:28.042Z,18.50
2018-11-12T17:07:54.264Z,18.50
2018-11-12T17:10:20.423Z,18.50
2018-11-12T17:12:46.730Z,18.50
2018-11-12T17:15:12.951Z,18.50
2018-11-12T17:17:39.343Z,18.50
2018-11-12T17:20:05.815Z,18.50
2018-11-12T17:22:32.040Z,18.50
2018-11-12T17:24:58.329Z,18.50
2018-11-12T17:27:24.913Z,18.50
2018-11-12T17:29:51.149Z,18.50
2018-11-12T17:32:17.346Z,18.50
2018-11-12T17:34:43.581Z,18.50
2018-11-12T17:37:13.922Z,18.50
2018-11-12T17:39:40.062Z,18.50
2018-11-12T17:42:06.362Z,18.50
2018-11-12T17:44:32.590Z,18.50
2018-11-12T17:46:59.223Z,18.50
2018-11-12T17:49:25.450Z,18.50
2018-11-12T17:51:51.675Z,18.50
2018-11-12T17:54:17.955Z,18.50
2018-11-12T17:56:44.544Z,18.50
2018-11-12T17:59:10.767Z,18.50
2018-11-12T18:01:37.024Z,18.50
2018-11-12T18:04:03.624Z,18.50
2018-11-12T18:06:29.862Z,18.50
2018-11-12T18:08:56.102Z,18.50
2018-11-12T18:11:23.326Z,18.50
2018-11-12T18:13:49.840Z,18.50
2018-11-12T18:16:16.402Z,18.50
2018-11-12T18:18:42.635Z,18.50
2018-11-12T18:21:08.855Z,18.40
2018-11-12T18:23:35.091Z,18.50
2018-11-12T18:26:01.319Z,18.40
2018-11-12T18:28:27.543Z,18.40
2018-11-12T18:30:53.723Z,18.50
2018-11-12T18:33:20.404Z,18.50
2018-11-12T18:35:46.624Z,18.50
2018-11-12T18:38:12.957Z,18.50
2018-11-12T18:40:39.962Z,18.40
2018-11-12T18:43:06.537Z,18.40
2018-11-12T18:45:32.767Z,18.40
2018-11-12T18:47:58.991Z,18.50
2018-11-12T18:50:25.243Z,18.40
2018-11-12T18:52:51.390Z,18.50
2018-11-12T18:55:17.671Z,18.50
2018-11-12T18:57:43.999Z,18.50
2018-11-12T19:00:10.999Z,18.50
2018-11-12T19:02:37.176Z,18.50
2018-11-12T19:05:03.400Z,18.40
2018-11-12T19:07:30.445Z,18.40
2018-11-12T19:09:56.589Z,18.40
2018-11-12T19:12:22.894Z,18.40
2018-11-12T19:14:49.123Z,18.40
2018-11-12T19:17:15.273Z,18.40
2018-11-12T19:19:41.598Z,18.40
2018-11-12T19:22:13.952Z,18.40
2018-11-12T19:24:40.162Z,18.40
2018-11-12T19:27:06.480Z,18.40
2018-11-12T19:29:32.836Z,18.40
2018-11-12T19:31:59.267Z,18.40
2018-11-12T19:34:25.422Z,18.40
2018-11-12T19:36:51.717Z,18.40
2018-11-12T19:39:17.942Z,18.40
2018-11-12T19:41:44.171Z,18.40
2018-11-12T19:44:10.443Z,18.40
2018-11-12T19:46:36.632Z,18.40
2018-11-12T19:49:02.854Z,18.40
2018-11-12T19:51:29.142Z,18.40
2018-11-12T19:53:55.719Z,18.40
2018-11-12T19:56:21.947Z,18.40
2018-11-12T19:58:48.208Z,18.40
2018-11-12T20:01:15.621Z,18.40
2018-11-12T20:03:41.887Z,18.40
2018-11-12T20:06:09.302Z,18.40
2018-11-12T20:08:35.539Z,18.40
2018-11-12T20:11:01.757Z,18.40
2018-11-12T20:13:27.985Z,18.40
2018-11-12T20:15:54.173Z,18.40
2018-11-12T20:18:20.456Z,18.40
2018-11-12T20:20:46.665Z,18.40
2018-11-12T20:23:12.898Z,18.40
2018-11-12T20:25:39.050Z,18.40
2018-11-12T20:28:05.344Z,18.40
2018-11-12T20:30:31.571Z,18.40
2018-11-12T20:32:59.046Z,18.40
2018-11-12T20:35:25.249Z,18.40
2018-11-12T20:37:51.485Z,18.40
2018-11-12T20:40:17.706Z,18.40
2018-11-12T20:42:43.942Z,18.40
2018-11-12T20:45:10.175Z,18.40
2018-11-12T20:47:37.624Z,18.40
2018-11-12T20:50:03.844Z,18.40
2018-11-12T20:52:30.098Z,18.40
2018-11-12T20:54:57.535Z,18.40
2018-11-12T20:57:23.778Z,18.40
2018-11-12T20:59:49.984Z,18.40
2018-11-12T21:02:16.207Z,18.40
2018-11-12T21:04:42.438Z,18.30
2018-11-12T21:07:08.661Z,18.40
2018-11-12T21:09:34.915Z,18.40
2018-11-12T21:12:02.340Z,18.40
2018-11-12T21:14:28.575Z,18.40
2018-11-12T21:16:54.799Z,18.40
2018-11-12T21:19:20.973Z,18.40
2018-11-12T21:21:47.657Z,18.40
2018-11-12T21:24:13.887Z,18.40
2018-11-12T21:26:40.119Z,18.40
2018-11-12T21:29:06.395Z,18.40
2018-11-12T21:31:33.790Z,18.40
2018-11-12T21:34:00.019Z,18.40
2018-11-12T21:36:26.179Z,18.40
2018-11-12T21:38:52.475Z,18.40
2018-11-12T21:41:18.702Z,18.30
2018-11-12T21:43:44.984Z,18.30
2018-11-12T21:46:11.564Z,18.40
2018-11-12T21:48:37.793Z,18.40
2018-11-12T21:51:04.022Z,18.40
2018-11-12T21:53:30.245Z,18.30
2018-11-12T21:55:56.403Z,18.40
2018-11-12T21:58:22.585Z,18.40
2018-11-12T22:00:48.928Z,18.30
2018-11-12T22:03:15.079Z,18.30
2018-11-12T22:05:41.391Z,18.40
2018-11-12T22:08:07.603Z,18.40
2018-11-12T22:10:33.837Z,18.40
2018-11-12T22:13:00.056Z,18.40
2018-11-12T22:15:26.288Z,18.40
2018-11-12T22:17:52.519Z,18.30
2018-11-12T22:20:18.728Z,18.30
2018-11-12T22:22:44.893Z,18.40
2018-11-12T22:25:11.043Z,18.40
2018-11-12T22:27:37.497Z,18.40
2018-11-12T22:30:04.670Z,18.30
2018-11-12T22:32:30.895Z,18.30
2018-11-12T22:34:57.331Z,18.40
2018-11-12T22:37:23.559Z,18.30
2018-11-12T22:39:51.006Z,18.30
2018-11-12T22:42:17.227Z,18.30
2018-11-12T22:44:43.458Z,18.30
2018-11-12T22:47:09.611Z,18.40
2018-11-12T22:49:35.763Z,18.30
2018-11-12T22:52:02.140Z,18.40
2018-11-12T22:54:28.373Z,18.30
2018-11-12T22:56:54.532Z,18.30
2018-11-12T22:59:20.815Z,18.30
2018-11-12T23:01:47.040Z,18.30
2018-11-12T23:04:13.276Z,18.30
2018-11-12T23:06:39.495Z,18.30
2018-11-12T23:09:05.736Z,18.30
2018-11-12T23:11:31.938Z,18.30
2018-11-12T23:13:58.179Z,18.30
2018-11-12T23:16:24.405Z,18.30
2018-11-12T23:18:50.647Z,18.30
2018-11-12T23:21:16.859Z,18.30
2018-11-12T23:23:43.075Z,18.30
2018-11-12T23:26:09.308Z,18.30
2018-11-12T23:28:35.538Z,18.30
2018-11-12T23:31:01.752Z,18.30
2018-11-12T23:33:28.390Z,18.30
2018-11-12T23:35:54.623Z,18.30
2018-11-12T23:38:20.847Z,18.30
2018-11-12T23:40:47.073Z,18.30
2018-11-12T23:43:13.298Z,18.30
2018-11-12T23:45:39.527Z,18.30
2018-11-12T23:48:05.747Z,18.30
2018-11-12T23:50:31.978Z,18.30
2018-11-12T23:52:58.207Z,18.30
2018-11-12T23:55:24.435Z,18.30
2018-11-12T23:57:50.705Z,18.30
